sensor_id;sensor_type;location;lat;lon;timestamp;temperature;humidity
9125;DHT22;4597;48.730;9.114;2023-02-10T00:00:47;-3.10;99.90
9125;DHT22;4597;48.730;9.114;2023-02-10T00:03:12;-3.00;99.90
9125;DHT22;4597;48.730;9.114;2023-02-10T00:05:38;-3.10;99.90
9125;DHT22;4597;48.730;9.114;2023-02-10T00:08:03;-3.10;99.90
9125;DHT22;4597;48.730;9.114;2023-02-10T00:10:29;-3.30;99.90
9125;DHT22;4597;48.730;9.114;2023-02-10T00:12:54;-3.40;99.90
9125;DHT22;4597;48.730;9.114;2023-02-10T00:15:20;-3.40;99.90
9125;DHT22;4597;48.730;9.114;2023-02-10T00:17:45;-3.40;99.90
9125;DHT22;4597;48.730;9.114;2023-02-10T00:20:11;-3.30;99.90
9125;DHT22;4597;48.730;9.114;2023-02-10T00:22:36;-3.30;99.90
9125;DHT22;4597;48.730;9.114;2023-02-10T00:25:02;-3.20;99.90
9125;DHT22;4597;48.730;9.114;2023-02-10T00:27:28;-3.30;99.90
9125;DHT22;4597;48.730;9.114;2023-02-10T00:29:53;-3.30;99.90
9125;DHT22;4597;48.730;9.114;2023-02-10T00:32:19;-3.30;99.90
9125;DHT22;4597;48.730;9.114;2023-02-10T00:34:45;-3.30;99.90
9125;DHT22;4597;48.730;9.114;2023-02-10T00:37:11;-3.30;99.90
9125;DHT22;4597;48.730;9.114;2023-02-10T00:39:36;-3.40;99.90
9125;DHT22;4597;48.730;9.114;2023-02-10T00:42:02;-3.50;99.90
9125;DHT22;4597;48.730;9.114;2023-02-10T00:44:27;-3.60;99.90
9125;DHT22;4597;48.730;9.114;2023-02-10T00:46:53;-3.70;99.90
9125;DHT22;4597;48.730;9.114;2023-02-10T00:49:18;-3.70;99.90
9125;DHT22;4597;48.730;9.114;2023-02-10T00:51:44;-3.70;99.90
9125;DHT22;4597;48.730;9.114;2023-02-10T00:54:13;-3.60;99.90
9125;DHT22;4597;48.730;9.114;2023-02-10T00:56:39;-3.60;99.90
9125;DHT22;4597;48.730;9.114;2023-02-10T00:59:05;-3.50;99.90
9125;DHT22;4597;48.730;9.114;2023-02-10T01:01:31;-3.50;99.90
9125;DHT22;4597;48.730;9.114;2023-02-10T01:03:57;-3.50;99.90
9125;DHT22;4597;48.730;9.114;2023-02-10T01:06:22;-3.50;99.90
9125;DHT22;4597;48.730;9.114;2023-02-10T01:08:48;-3.50;99.90
9125;DHT22;4597;48.730;9.114;2023-02-10T01:11:14;-3.50;99.90
9125;DHT22;4597;48.730;9.114;2023-02-10T01:13:41;-3.50;99.90
9125;DHT22;4597;48.730;9.114;2023-02-10T01:16:09;-3.60;99.90
9125;DHT22;4597;48.730;9.114;2023-02-10T01:18:38;-3.60;99.90
9125;DHT22;4597;48.730;9.114;2023-02-10T01:21:12;-3.70;99.90
9125;DHT22;4597;48.730;9.114;2023-02-10T01:23:38;-3.60;99.90
9125;DHT22;4597;48.730;9.114;2023-02-10T01:26:04;-3.70;99.90
9125;DHT22;4597;48.730;9.114;2023-02-10T01:28:30;-3.60;99.90
9125;DHT22;4597;48.730;9.114;2023-02-10T01:30:55;-3.60;99.90
9125;DHT22;4597;48.730;9.114;2023-02-10T01:33:21;-3.60;99.90
9125;DHT22;4597;48.730;9.114;2023-02-10T01:35:46;-3.60;99.90
9125;DHT22;4597;48.730;9.114;2023-02-10T01:38:12;-3.60;99.90
9125;DHT22;4597;48.730;9.114;2023-02-10T01:40:37;-3.60;99.90
9125;DHT22;4597;48.730;9.114;2023-02-10T01:43:15;-3.60;99.90
9125;DHT22;4597;48.730;9.114;2023-02-10T01:45:41;-3.60;99.90
9125;DHT22;4597;48.730;9.114;2023-02-10T01:48:08;-3.60;99.90
9125;DHT22;4597;48.730;9.114;2023-02-10T01:50:41;-3.60;99.90
9125;DHT22;4597;48.730;9.114;2023-02-10T01:53:07;-3.70;99.90
9125;DHT22;4597;48.730;9.114;2023-02-10T01:55:33;-3.70;99.90
9125;DHT22;4597;48.730;9.114;2023-02-10T01:58:06;-3.70;99.90
9125;DHT22;4597;48.730;9.114;2023-02-10T02:00:34;-3.80;99.90
9125;DHT22;4597;48.730;9.114;2023-02-10T02:03:01;-3.80;99.90
9125;DHT22;4597;48.730;9.114;2023-02-10T02:05:31;-3.80;99.90
9125;DHT22;4597;48.730;9.114;2023-02-10T02:08:07;-3.80;99.90
9125;DHT22;4597;48.730;9.114;2023-02-10T02:10:43;-3.80;99.90
9125;DHT22;4597;48.730;9.114;2023-02-10T02:13:47;-3.80;99.90
9125;DHT22;4597;48.730;9.114;2023-02-10T02:27:37;-3.90;99.90
9125;DHT22;4597;48.730;9.114;2023-02-10T02:30:15;-3.90;99.90
9125;DHT22;4597;48.730;9.114;2023-02-10T02:33:04;-3.90;99.90
9125;DHT22;4597;48.730;9.114;2023-02-10T02:35:55;-3.90;99.90
9125;DHT22;4597;48.730;9.114;2023-02-10T02:38:22;-3.90;99.90
9125;DHT22;4597;48.730;9.114;2023-02-10T02:40:48;-3.90;99.90
9125;DHT22;4597;48.730;9.114;2023-02-10T02:43:14;-3.90;99.90
9125;DHT22;4597;48.730;9.114;2023-02-10T02:45:55;-4.00;99.90
9125;DHT22;4597;48.730;9.114;2023-02-10T02:53:41;-4.00;99.90
9125;DHT22;4597;48.730;9.114;2023-02-10T02:56:14;-4.00;99.90
9125;DHT22;4597;48.730;9.114;2023-02-10T02:58:51;-4.10;99.90
9125;DHT22;4597;48.730;9.114;2023-02-10T03:01:27;-4.10;99.90
9125;DHT22;4597;48.730;9.114;2023-02-10T03:03:55;-4.10;99.90
9125;DHT22;4597;48.730;9.114;2023-02-10T03:06:22;-4.10;99.90
9125;DHT22;4597;48.730;9.114;2023-02-10T03:08:48;-4.10;99.90
9125;DHT22;4597;48.730;9.114;2023-02-10T03:11:13;-4.10;99.90
9125;DHT22;4597;48.730;9.114;2023-02-10T03:13:39;-4.20;99.90
9125;DHT22;4597;48.730;9.114;2023-02-10T03:16:05;-4.20;99.90
9125;DHT22;4597;48.730;9.114;2023-02-10T03:18:30;-4.20;99.90
9125;DHT22;4597;48.730;9.114;2023-02-10T03:20:56;-4.20;99.90
9125;DHT22;4597;48.730;9.114;2023-02-10T03:23:21;-4.30;99.90
9125;DHT22;4597;48.730;9.114;2023-02-10T03:25:47;-4.30;99.90
9125;DHT22;4597;48.730;9.114;2023-02-10T03:28:13;-4.30;99.90
9125;DHT22;4597;48.730;9.114;2023-02-10T03:30:39;-4.30;99.90
9125;DHT22;4597;48.730;9.114;2023-02-10T03:33:05;-4.30;99.90
9125;DHT22;4597;48.730;9.114;2023-02-10T03:35:35;-4.30;99.90
9125;DHT22;4597;48.730;9.114;2023-02-10T03:38:01;-4.30;99.90
9125;DHT22;4597;48.730;9.114;2023-02-10T03:40:26;-4.30;99.90
9125;DHT22;4597;48.730;9.114;2023-02-10T03:42:52;-4.30;99.90
9125;DHT22;4597;48.730;9.114;2023-02-10T03:45:17;-4.30;99.90
9125;DHT22;4597;48.730;9.114;2023-02-10T03:47:43;-4.30;99.90
9125;DHT22;4597;48.730;9.114;2023-02-10T03:50:08;-4.30;99.90
9125;DHT22;4597;48.730;9.114;2023-02-10T03:52:34;-4.30;99.90
9125;DHT22;4597;48.730;9.114;2023-02-10T03:54:59;-4.30;99.90
9125;DHT22;4597;48.730;9.114;2023-02-10T03:57:25;-4.40;99.90
9125;DHT22;4597;48.730;9.114;2023-02-10T03:59:50;-4.40;99.90
9125;DHT22;4597;48.730;9.114;2023-02-10T04:02:16;-4.40;99.90
9125;DHT22;4597;48.730;9.114;2023-02-10T04:04:41;-4.40;99.90
9125;DHT22;4597;48.730;9.114;2023-02-10T04:07:07;-4.40;99.90
9125;DHT22;4597;48.730;9.114;2023-02-10T04:09:32;-4.40;99.90
9125;DHT22;4597;48.730;9.114;2023-02-10T04:11:58;-4.50;99.90
9125;DHT22;4597;48.730;9.114;2023-02-10T04:14:23;-4.50;99.90
9125;DHT22;4597;48.730;9.114;2023-02-10T04:16:49;-4.50;99.90
9125;DHT22;4597;48.730;9.114;2023-02-10T04:19:14;-4.50;99.90
9125;DHT22;4597;48.730;9.114;2023-02-10T04:21:40;-4.40;99.90
9125;DHT22;4597;48.730;9.114;2023-02-10T04:24:05;-4.50;99.90
9125;DHT22;4597;48.730;9.114;2023-02-10T04:26:31;-4.50;99.90
9125;DHT22;4597;48.730;9.114;2023-02-10T04:28:56;-4.60;99.90
9125;DHT22;4597;48.730;9.114;2023-02-10T04:31:22;-4.60;99.90
9125;DHT22;4597;48.730;9.114;2023-02-10T04:33:47;-4.60;99.90
9125;DHT22;4597;48.730;9.114;2023-02-10T04:36:13;-4.60;99.90
9125;DHT22;4597;48.730;9.114;2023-02-10T04:38:38;-4.60;99.90
9125;DHT22;4597;48.730;9.114;2023-02-10T04:41:04;-4.60;99.90
9125;DHT22;4597;48.730;9.114;2023-02-10T04:43:31;-4.60;99.90
9125;DHT22;4597;48.730;9.114;2023-02-10T04:45:57;-4.60;99.90
9125;DHT22;4597;48.730;9.114;2023-02-10T04:48:22;-4.70;99.90
9125;DHT22;4597;48.730;9.114;2023-02-10T04:50:48;-4.70;99.90
9125;DHT22;4597;48.730;9.114;2023-02-10T04:53:13;-4.80;99.90
9125;DHT22;4597;48.730;9.114;2023-02-10T04:55:39;-4.80;99.90
9125;DHT22;4597;48.730;9.114;2023-02-10T04:58:05;-4.70;99.90
9125;DHT22;4597;48.730;9.114;2023-02-10T05:00:30;-4.90;99.90
9125;DHT22;4597;48.730;9.114;2023-02-10T05:02:56;-4.90;99.90
9125;DHT22;4597;48.730;9.114;2023-02-10T05:05:21;-4.80;99.90
9125;DHT22;4597;48.730;9.114;2023-02-10T05:07:50;-4.80;99.90
9125;DHT22;4597;48.730;9.114;2023-02-10T05:10:15;-4.80;99.90
9125;DHT22;4597;48.730;9.114;2023-02-10T05:12:41;-4.80;99.90
9125;DHT22;4597;48.730;9.114;2023-02-10T05:15:07;-4.90;99.90
9125;DHT22;4597;48.730;9.114;2023-02-10T05:17:33;-4.90;99.90
9125;DHT22;4597;48.730;9.114;2023-02-10T05:19:59;-4.80;99.90
9125;DHT22;4597;48.730;9.114;2023-02-10T05:22:24;-4.80;99.90
9125;DHT22;4597;48.730;9.114;2023-02-10T05:24:57;-4.70;99.90
9125;DHT22;4597;48.730;9.114;2023-02-10T05:27:24;-4.70;99.90
9125;DHT22;4597;48.730;9.114;2023-02-10T05:29:49;-4.70;99.90
9125;DHT22;4597;48.730;9.114;2023-02-10T05:32:15;-4.70;99.90
9125;DHT22;4597;48.730;9.114;2023-02-10T05:34:40;-4.70;99.90
9125;DHT22;4597;48.730;9.114;2023-02-10T05:37:06;-4.80;99.90
9125;DHT22;4597;48.730;9.114;2023-02-10T05:39:32;-4.80;99.90
9125;DHT22;4597;48.730;9.114;2023-02-10T05:41:58;-4.80;99.90
9125;DHT22;4597;48.730;9.114;2023-02-10T05:44:25;-4.80;99.90
9125;DHT22;4597;48.730;9.114;2023-02-10T05:46:52;-4.80;99.90
9125;DHT22;4597;48.730;9.114;2023-02-10T05:49:18;-4.80;99.90
9125;DHT22;4597;48.730;9.114;2023-02-10T05:51:44;-4.80;99.90
9125;DHT22;4597;48.730;9.114;2023-02-10T05:54:09;-4.90;99.90
9125;DHT22;4597;48.730;9.114;2023-02-10T05:56:36;-4.90;99.90
9125;DHT22;4597;48.730;9.114;2023-02-10T05:59:01;-4.90;99.90
9125;DHT22;4597;48.730;9.114;2023-02-10T06:01:27;-4.90;99.90
9125;DHT22;4597;48.730;9.114;2023-02-10T06:03:54;-5.00;99.90
9125;DHT22;4597;48.730;9.114;2023-02-10T06:06:19;-5.00;99.90
9125;DHT22;4597;48.730;9.114;2023-02-10T06:08:45;-5.00;99.90
9125;DHT22;4597;48.730;9.114;2023-02-10T06:11:11;-5.00;99.90
9125;DHT22;4597;48.730;9.114;2023-02-10T06:13:37;-5.00;99.90
9125;DHT22;4597;48.730;9.114;2023-02-10T06:16:02;-5.00;99.90
9125;DHT22;4597;48.730;9.114;2023-02-10T06:18:29;-5.00;99.90
9125;DHT22;4597;48.730;9.114;2023-02-10T06:20:55;-5.00;99.90
9125;DHT22;4597;48.730;9.114;2023-02-10T06:23:22;-5.00;99.90
9125;DHT22;4597;48.730;9.114;2023-02-10T06:25:47;-5.00;99.90
9125;DHT22;4597;48.730;9.114;2023-02-10T06:28:13;-5.00;99.90
9125;DHT22;4597;48.730;9.114;2023-02-10T06:30:40;-5.10;99.90
9125;DHT22;4597;48.730;9.114;2023-02-10T06:33:06;-5.10;99.90
9125;DHT22;4597;48.730;9.114;2023-02-10T06:35:31;-5.10;99.90
9125;DHT22;4597;48.730;9.114;2023-02-10T06:37:57;-5.10;99.90
9125;DHT22;4597;48.730;9.114;2023-02-10T06:40:22;-5.20;99.90
9125;DHT22;4597;48.730;9.114;2023-02-10T06:42:48;-5.20;99.90
9125;DHT22;4597;48.730;9.114;2023-02-10T06:45:13;-5.10;99.90
9125;DHT22;4597;48.730;9.114;2023-02-10T06:47:39;-5.10;99.90
9125;DHT22;4597;48.730;9.114;2023-02-10T06:50:05;-5.10;99.90
9125;DHT22;4597;48.730;9.114;2023-02-10T06:52:31;-5.00;99.90
9125;DHT22;4597;48.730;9.114;2023-02-10T06:55:00;-5.00;99.90
9125;DHT22;4597;48.730;9.114;2023-02-10T06:57:25;-5.00;99.90
9125;DHT22;4597;48.730;9.114;2023-02-10T06:59:51;-5.00;99.90
9125;DHT22;4597;48.730;9.114;2023-02-10T07:02:18;-5.00;99.90
9125;DHT22;4597;48.730;9.114;2023-02-10T07:04:43;-5.00;99.90
9125;DHT22;4597;48.730;9.114;2023-02-10T07:07:09;-5.00;99.90
9125;DHT22;4597;48.730;9.114;2023-02-10T07:09:35;-4.90;99.90
9125;DHT22;4597;48.730;9.114;2023-02-10T07:12:00;-4.90;99.90
9125;DHT22;4597;48.730;9.114;2023-02-10T07:14:26;-4.90;99.90
9125;DHT22;4597;48.730;9.114;2023-02-10T07:16:51;-4.80;99.90
9125;DHT22;4597;48.730;9.114;2023-02-10T07:19:17;-4.80;99.90
9125;DHT22;4597;48.730;9.114;2023-02-10T07:21:42;-4.80;99.90
9125;DHT22;4597;48.730;9.114;2023-02-10T07:24:08;-4.80;99.90
9125;DHT22;4597;48.730;9.114;2023-02-10T07:26:34;-4.80;99.90
9125;DHT22;4597;48.730;9.114;2023-02-10T07:28:59;-4.70;99.90
9125;DHT22;4597;48.730;9.114;2023-02-10T07:31:25;-4.70;99.90
9125;DHT22;4597;48.730;9.114;2023-02-10T07:33:51;-4.70;99.90
9125;DHT22;4597;48.730;9.114;2023-02-10T07:36:16;-4.70;99.90
9125;DHT22;4597;48.730;9.114;2023-02-10T07:38:42;-4.60;99.90
9125;DHT22;4597;48.730;9.114;2023-02-10T07:41:07;-4.60;99.90
9125;DHT22;4597;48.730;9.114;2023-02-10T07:43:34;-4.60;99.90
9125;DHT22;4597;48.730;9.114;2023-02-10T07:45:59;-4.50;99.90
9125;DHT22;4597;48.730;9.114;2023-02-10T07:48:25;-4.50;99.90
9125;DHT22;4597;48.730;9.114;2023-02-10T07:50:51;-4.50;99.90
9125;DHT22;4597;48.730;9.114;2023-02-10T07:53:18;-4.40;99.90
9125;DHT22;4597;48.730;9.114;2023-02-10T07:55:43;-4.40;99.90
9125;DHT22;4597;48.730;9.114;2023-02-10T07:58:09;-4.40;99.90
9125;DHT22;4597;48.730;9.114;2023-02-10T08:00:35;-4.30;99.90
9125;DHT22;4597;48.730;9.114;2023-02-10T08:03:00;-4.30;99.90
9125;DHT22;4597;48.730;9.114;2023-02-10T08:05:26;-4.30;99.90
9125;DHT22;4597;48.730;9.114;2023-02-10T08:07:54;-4.40;99.90
9125;DHT22;4597;48.730;9.114;2023-02-10T08:10:19;-4.40;99.90
9125;DHT22;4597;48.730;9.114;2023-02-10T08:12:45;-4.40;99.90
9125;DHT22;4597;48.730;9.114;2023-02-10T08:15:12;-4.40;99.90
9125;DHT22;4597;48.730;9.114;2023-02-10T08:17:38;-4.20;99.90
9125;DHT22;4597;48.730;9.114;2023-02-10T08:20:05;-4.10;99.90
9125;DHT22;4597;48.730;9.114;2023-02-10T08:22:30;-4.00;99.90
9125;DHT22;4597;48.730;9.114;2023-02-10T08:24:56;-4.00;99.90
9125;DHT22;4597;48.730;9.114;2023-02-10T08:27:21;-3.90;99.90
9125;DHT22;4597;48.730;9.114;2023-02-10T08:29:47;-3.80;99.90
9125;DHT22;4597;48.730;9.114;2023-02-10T08:32:12;-3.70;99.90
9125;DHT22;4597;48.730;9.114;2023-02-10T08:34:47;-3.60;99.90
9125;DHT22;4597;48.730;9.114;2023-02-10T08:37:13;-3.60;99.90
9125;DHT22;4597;48.730;9.114;2023-02-10T08:39:38;-3.50;99.90
9125;DHT22;4597;48.730;9.114;2023-02-10T08:42:04;-3.40;99.90
9125;DHT22;4597;48.730;9.114;2023-02-10T08:44:29;-3.30;99.90
9125;DHT22;4597;48.730;9.114;2023-02-10T08:46:55;-3.20;99.90
9125;DHT22;4597;48.730;9.114;2023-02-10T08:49:21;-3.10;99.90
9125;DHT22;4597;48.730;9.114;2023-02-10T08:51:50;-3.10;99.90
9125;DHT22;4597;48.730;9.114;2023-02-10T08:54:15;-3.00;99.90
9125;DHT22;4597;48.730;9.114;2023-02-10T08:56:41;-3.00;99.90
9125;DHT22;4597;48.730;9.114;2023-02-10T08:59:06;-2.90;99.90
9125;DHT22;4597;48.730;9.114;2023-02-10T09:01:32;-2.90;99.90
9125;DHT22;4597;48.730;9.114;2023-02-10T09:03:57;-2.90;99.90
9125;DHT22;4597;48.730;9.114;2023-02-10T09:06:36;-2.80;99.90
9125;DHT22;4597;48.730;9.114;2023-02-10T09:09:14;-2.70;99.90
9125;DHT22;4597;48.730;9.114;2023-02-10T09:11:41;-2.60;99.90
9125;DHT22;4597;48.730;9.114;2023-02-10T09:14:07;-2.60;99.90
9125;DHT22;4597;48.730;9.114;2023-02-10T09:16:33;-2.50;99.90
9125;DHT22;4597;48.730;9.114;2023-02-10T09:18:59;-2.40;99.90
9125;DHT22;4597;48.730;9.114;2023-02-10T09:21:25;-2.20;99.90
9125;DHT22;4597;48.730;9.114;2023-02-10T09:23:51;-2.20;99.90
9125;DHT22;4597;48.730;9.114;2023-02-10T09:26:17;-2.00;99.90
9125;DHT22;4597;48.730;9.114;2023-02-10T09:28:43;-1.80;99.90
9125;DHT22;4597;48.730;9.114;2023-02-10T09:31:10;-1.80;99.90
9125;DHT22;4597;48.730;9.114;2023-02-10T09:33:36;-1.80;99.90
9125;DHT22;4597;48.730;9.114;2023-02-10T09:36:06;-1.70;99.90
9125;DHT22;4597;48.730;9.114;2023-02-10T09:38:32;-1.60;99.90
9125;DHT22;4597;48.730;9.114;2023-02-10T09:44:03;-1.50;99.90
9125;DHT22;4597;48.730;9.114;2023-02-10T09:47:15;-1.40;99.90
9125;DHT22;4597;48.730;9.114;2023-02-10T09:52:16;-1.30;99.90
9125;DHT22;4597;48.730;9.114;2023-02-10T09:54:43;-1.20;99.90
9125;DHT22;4597;48.730;9.114;2023-02-10T09:57:19;-1.10;99.90
9125;DHT22;4597;48.730;9.114;2023-02-10T09:59:47;-1.00;99.90
9125;DHT22;4597;48.730;9.114;2023-02-10T10:02:21;-0.90;99.90
9125;DHT22;4597;48.730;9.114;2023-02-10T10:04:50;-0.80;99.90
9125;DHT22;4597;48.730;9.114;2023-02-10T10:07:23;-0.60;99.90
9125;DHT22;4597;48.730;9.114;2023-02-10T10:13:00;-0.30;99.90
9125;DHT22;4597;48.730;9.114;2023-02-10T10:15:33;-0.10;99.90
9125;DHT22;4597;48.730;9.114;2023-02-10T10:21:16;0.10;99.90
9125;DHT22;4597;48.730;9.114;2023-02-10T10:24:10;0.20;99.90
9125;DHT22;4597;48.730;9.114;2023-02-10T10:26:48;0.30;99.90
9125;DHT22;4597;48.730;9.114;2023-02-10T10:29:35;0.30;99.90
9125;DHT22;4597;48.730;9.114;2023-02-10T10:32:16;0.40;99.90
9125;DHT22;4597;48.730;9.114;2023-02-10T10:34:50;0.50;99.90
9125;DHT22;4597;48.730;9.114;2023-02-10T10:37:19;0.50;99.90
9125;DHT22;4597;48.730;9.114;2023-02-10T10:39:48;0.60;99.90
9125;DHT22;4597;48.730;9.114;2023-02-10T10:42:25;0.70;99.90
9125;DHT22;4597;48.730;9.114;2023-02-10T10:44:59;0.80;99.90
9125;DHT22;4597;48.730;9.114;2023-02-10T10:47:38;0.90;99.90
9125;DHT22;4597;48.730;9.114;2023-02-10T10:50:05;1.00;99.90
9125;DHT22;4597;48.730;9.114;2023-02-10T10:52:34;1.10;99.90
9125;DHT22;4597;48.730;9.114;2023-02-10T10:55:08;1.20;99.90
9125;DHT22;4597;48.730;9.114;2023-02-10T10:57:36;1.20;99.90
9125;DHT22;4597;48.730;9.114;2023-02-10T11:00:23;1.30;99.90
9125;DHT22;4597;48.730;9.114;2023-02-10T11:05:21;1.50;99.90
9125;DHT22;4597;48.730;9.114;2023-02-10T11:07:49;1.60;99.90
9125;DHT22;4597;48.730;9.114;2023-02-10T11:10:23;1.60;99.90
9125;DHT22;4597;48.730;9.114;2023-02-10T11:12:49;1.70;99.90
9125;DHT22;4597;48.730;9.114;2023-02-10T11:15:41;1.80;99.90
9125;DHT22;4597;48.730;9.114;2023-02-10T11:18:34;1.90;99.90
9125;DHT22;4597;48.730;9.114;2023-02-10T11:21:03;2.00;99.90
9125;DHT22;4597;48.730;9.114;2023-02-10T11:23:29;2.00;99.90
9125;DHT22;4597;48.730;9.114;2023-02-10T11:28:25;2.30;99.90
9125;DHT22;4597;48.730;9.114;2023-02-10T11:30:58;2.50;99.90
9125;DHT22;4597;48.730;9.114;2023-02-10T11:33:28;2.50;99.90
9125;DHT22;4597;48.730;9.114;2023-02-10T11:36:03;2.60;99.90
9125;DHT22;4597;48.730;9.114;2023-02-10T11:38:29;2.70;99.90
9125;DHT22;4597;48.730;9.114;2023-02-10T11:40:57;2.70;99.90
9125;DHT22;4597;48.730;9.114;2023-02-10T11:43:40;2.70;99.90
9125;DHT22;4597;48.730;9.114;2023-02-10T11:46:06;2.80;99.90
9125;DHT22;4597;48.730;9.114;2023-02-10T11:48:35;2.80;99.90
9125;DHT22;4597;48.730;9.114;2023-02-10T11:51:13;3.00;99.90
9125;DHT22;4597;48.730;9.114;2023-02-10T11:53:39;3.10;99.90
9125;DHT22;4597;48.730;9.114;2023-02-10T11:56:30;3.10;99.90
9125;DHT22;4597;48.730;9.114;2023-02-10T12:14:02;3.50;99.90
9125;DHT22;4597;48.730;9.114;2023-02-10T12:16:46;3.60;99.90
9125;DHT22;4597;48.730;9.114;2023-02-10T12:19:36;3.70;99.90
9125;DHT22;4597;48.730;9.114;2023-02-10T12:22:25;3.80;99.90
9125;DHT22;4597;48.730;9.114;2023-02-10T12:27:39;3.90;99.90
9125;DHT22;4597;48.730;9.114;2023-02-10T12:41:42;4.20;99.90
9125;DHT22;4597;48.730;9.114;2023-02-10T12:44:28;4.40;99.90
9125;DHT22;4597;48.730;9.114;2023-02-10T12:50:26;4.60;99.90
9125;DHT22;4597;48.730;9.114;2023-02-10T12:53:19;4.60;99.90
9125;DHT22;4597;48.730;9.114;2023-02-10T12:55:56;4.80;99.90
9125;DHT22;4597;48.730;9.114;2023-02-10T12:58:34;4.80;99.90
9125;DHT22;4597;48.730;9.114;2023-02-10T13:01:31;5.00;99.90
9125;DHT22;4597;48.730;9.114;2023-02-10T13:04:13;5.00;99.90
9125;DHT22;4597;48.730;9.114;2023-02-10T13:06:58;5.10;99.20
9125;DHT22;4597;48.730;9.114;2023-02-10T13:09:40;5.20;95.50
9125;DHT22;4597;48.730;9.114;2023-02-10T13:12:25;5.20;90.80
9125;DHT22;4597;48.730;9.114;2023-02-10T13:14:54;5.30;90.00
9125;DHT22;4597;48.730;9.114;2023-02-10T13:17:25;5.40;87.70
9125;DHT22;4597;48.730;9.114;2023-02-10T13:19:59;5.60;81.60
9125;DHT22;4597;48.730;9.114;2023-02-10T13:25:17;5.60;81.80
9125;DHT22;4597;48.730;9.114;2023-02-10T13:34:01;6.10;78.30
9125;DHT22;4597;48.730;9.114;2023-02-10T13:36:30;6.00;76.90
9125;DHT22;4597;48.730;9.114;2023-02-10T13:39:00;6.20;76.80
9125;DHT22;4597;48.730;9.114;2023-02-10T13:41:33;6.30;75.50
9125;DHT22;4597;48.730;9.114;2023-02-10T13:44:26;6.50;72.80
9125;DHT22;4597;48.730;9.114;2023-02-10T13:49:23;6.80;70.80
9125;DHT22;4597;48.730;9.114;2023-02-10T13:51:50;6.90;71.00
9125;DHT22;4597;48.730;9.114;2023-02-10T13:54:26;6.90;68.30
9125;DHT22;4597;48.730;9.114;2023-02-10T13:56:54;7.00;67.70
9125;DHT22;4597;48.730;9.114;2023-02-10T14:02:02;7.10;66.50
9125;DHT22;4597;48.730;9.114;2023-02-10T14:04:40;7.20;66.40
9125;DHT22;4597;48.730;9.114;2023-02-10T14:07:30;7.30;64.20
9125;DHT22;4597;48.730;9.114;2023-02-10T14:10:06;7.20;65.70
9125;DHT22;4597;48.730;9.114;2023-02-10T14:12:32;7.40;64.30
9125;DHT22;4597;48.730;9.114;2023-02-10T14:15:31;7.40;63.10
9125;DHT22;4597;48.730;9.114;2023-02-10T14:18:04;7.60;62.70
9125;DHT22;4597;48.730;9.114;2023-02-10T14:20:36;7.60;62.80
9125;DHT22;4597;48.730;9.114;2023-02-10T14:23:04;7.70;61.20
9125;DHT22;4597;48.730;9.114;2023-02-10T14:25:34;7.70;60.10
9125;DHT22;4597;48.730;9.114;2023-02-10T14:28:01;7.80;61.00
9125;DHT22;4597;48.730;9.114;2023-02-10T14:30:43;7.90;59.80
9125;DHT22;4597;48.730;9.114;2023-02-10T14:33:38;7.90;59.10
9125;DHT22;4597;48.730;9.114;2023-02-10T14:36:17;7.90;58.40
9125;DHT22;4597;48.730;9.114;2023-02-10T14:38:49;7.90;58.70
9125;DHT22;4597;48.730;9.114;2023-02-10T14:41:16;7.80;59.40
9125;DHT22;4597;48.730;9.114;2023-02-10T14:43:41;7.80;60.50
9125;DHT22;4597;48.730;9.114;2023-02-10T14:46:07;7.90;59.80
9125;DHT22;4597;48.730;9.114;2023-02-10T14:48:36;8.00;59.90
9125;DHT22;4597;48.730;9.114;2023-02-10T14:51:03;7.90;59.40
9125;DHT22;4597;48.730;9.114;2023-02-10T14:53:30;8.10;60.10
9125;DHT22;4597;48.730;9.114;2023-02-10T14:56:00;8.20;58.50
9125;DHT22;4597;48.730;9.114;2023-02-10T14:58:26;8.20;58.30
9125;DHT22;4597;48.730;9.114;2023-02-10T15:00:56;8.30;58.70
9125;DHT22;4597;48.730;9.114;2023-02-10T15:03:23;8.20;57.70
9125;DHT22;4597;48.730;9.114;2023-02-10T15:05:51;8.20;58.20
9125;DHT22;4597;48.730;9.114;2023-02-10T15:08:21;8.20;58.50
9125;DHT22;4597;48.730;9.114;2023-02-10T15:10:50;8.30;57.20
9125;DHT22;4597;48.730;9.114;2023-02-10T15:13:23;8.30;56.50
9125;DHT22;4597;48.730;9.114;2023-02-10T15:15:51;8.30;55.50
9125;DHT22;4597;48.730;9.114;2023-02-10T15:18:27;8.20;54.90
9125;DHT22;4597;48.730;9.114;2023-02-10T15:20:56;8.20;55.10
9125;DHT22;4597;48.730;9.114;2023-02-10T15:23:22;8.00;55.20
9125;DHT22;4597;48.730;9.114;2023-02-10T15:26:03;7.90;55.80
9125;DHT22;4597;48.730;9.114;2023-02-10T15:28:30;7.90;55.80
9125;DHT22;4597;48.730;9.114;2023-02-10T15:31:13;7.80;56.30
9125;DHT22;4597;48.730;9.114;2023-02-10T15:36:11;7.70;56.30
9125;DHT22;4597;48.730;9.114;2023-02-10T15:38:48;7.60;55.60
9125;DHT22;4597;48.730;9.114;2023-02-10T15:41:38;7.40;56.00
9125;DHT22;4597;48.730;9.114;2023-02-10T15:44:28;7.20;56.30
9125;DHT22;4597;48.730;9.114;2023-02-10T15:47:13;7.00;57.20
9125;DHT22;4597;48.730;9.114;2023-02-10T15:49:40;6.90;57.90
9125;DHT22;4597;48.730;9.114;2023-02-10T15:52:11;6.70;58.10
9125;DHT22;4597;48.730;9.114;2023-02-10T15:54:38;6.70;58.20
9125;DHT22;4597;48.730;9.114;2023-02-10T15:57:05;6.60;58.70
9125;DHT22;4597;48.730;9.114;2023-02-10T15:59:31;6.50;59.80
9125;DHT22;4597;48.730;9.114;2023-02-10T16:01:59;6.40;61.30
9125;DHT22;4597;48.730;9.114;2023-02-10T16:04:25;6.20;61.20
9125;DHT22;4597;48.730;9.114;2023-02-10T16:06:52;6.20;60.40
9125;DHT22;4597;48.730;9.114;2023-02-10T16:09:18;6.10;60.80
9125;DHT22;4597;48.730;9.114;2023-02-10T16:11:43;5.90;63.10
9125;DHT22;4597;48.730;9.114;2023-02-10T16:14:09;5.70;64.10
9125;DHT22;4597;48.730;9.114;2023-02-10T16:16:38;5.50;64.50
9125;DHT22;4597;48.730;9.114;2023-02-10T16:19:04;5.30;65.20
9125;DHT22;4597;48.730;9.114;2023-02-10T16:21:31;5.20;65.70
9125;DHT22;4597;48.730;9.114;2023-02-10T16:23:56;5.10;66.80
9125;DHT22;4597;48.730;9.114;2023-02-10T16:26:23;5.00;68.80
9125;DHT22;4597;48.730;9.114;2023-02-10T16:28:49;4.90;70.90
9125;DHT22;4597;48.730;9.114;2023-02-10T16:31:15;4.70;73.20
9125;DHT22;4597;48.730;9.114;2023-02-10T16:33:43;4.60;74.70
9125;DHT22;4597;48.730;9.114;2023-02-10T16:36:12;4.40;76.80
9125;DHT22;4597;48.730;9.114;2023-02-10T16:38:38;4.30;79.60
9125;DHT22;4597;48.730;9.114;2023-02-10T16:41:04;4.10;81.50
9125;DHT22;4597;48.730;9.114;2023-02-10T16:43:30;4.00;83.40
9125;DHT22;4597;48.730;9.114;2023-02-10T16:45:55;3.90;85.70
9125;DHT22;4597;48.730;9.114;2023-02-10T16:48:21;3.90;86.70
9125;DHT22;4597;48.730;9.114;2023-02-10T16:50:46;3.80;88.70
9125;DHT22;4597;48.730;9.114;2023-02-10T16:53:12;3.80;90.10
9125;DHT22;4597;48.730;9.114;2023-02-10T16:55:38;3.70;91.30
9125;DHT22;4597;48.730;9.114;2023-02-10T16:58:05;3.60;92.00
9125;DHT22;4597;48.730;9.114;2023-02-10T17:00:31;3.60;92.70
9125;DHT22;4597;48.730;9.114;2023-02-10T17:02:57;3.60;93.90
9125;DHT22;4597;48.730;9.114;2023-02-10T17:05:23;3.50;94.50
9125;DHT22;4597;48.730;9.114;2023-02-10T17:07:49;3.50;95.90
9125;DHT22;4597;48.730;9.114;2023-02-10T17:10:21;3.40;97.00
9125;DHT22;4597;48.730;9.114;2023-02-10T17:12:47;3.30;98.30
9125;DHT22;4597;48.730;9.114;2023-02-10T17:15:13;3.30;98.90
9125;DHT22;4597;48.730;9.114;2023-02-10T17:17:39;3.20;99.30
9125;DHT22;4597;48.730;9.114;2023-02-10T17:20:06;3.10;99.90
9125;DHT22;4597;48.730;9.114;2023-02-10T17:22:32;3.10;99.90
9125;DHT22;4597;48.730;9.114;2023-02-10T17:24:57;3.00;99.90
9125;DHT22;4597;48.730;9.114;2023-02-10T17:27:23;3.00;99.90
9125;DHT22;4597;48.730;9.114;2023-02-10T17:29:49;2.90;99.90
9125;DHT22;4597;48.730;9.114;2023-02-10T17:32:15;2.90;99.90
9125;DHT22;4597;48.730;9.114;2023-02-10T17:34:40;2.90;99.90
9125;DHT22;4597;48.730;9.114;2023-02-10T17:37:06;2.80;99.90
9125;DHT22;4597;48.730;9.114;2023-02-10T17:39:33;2.80;99.90
9125;DHT22;4597;48.730;9.114;2023-02-10T17:42:06;2.70;99.90